sensor_id;sensor_type;location;lat;lon;timestamp;pressure;altitude;pressure_sealevel;temperature;humidity
17362;BME280;8798;51.938;4.348;2023-04-02T00:02:54;100584.50;;;9.43;87.25
17362;BME280;8798;51.938;4.348;2023-04-02T00:05:44;100592.53;;;9.43;87.22
17362;BME280;8798;51.938;4.348;2023-04-02T00:08:23;100599.75;;;9.43;87.29
17362;BME280;8798;51.938;4.348;2023-04-02T00:10:53;100622.72;;;9.45;87.42
17362;BME280;8798;51.938;4.348;2023-04-02T00:13:27;100636.13;;;9.45;87.20
17362;BME280;8798;51.938;4.348;2023-04-02T00:15:57;100640.50;;;9.46;87.13
17362;BME280;8798;51.938;4.348;2023-04-02T00:18:27;100624.19;;;9.40;87.40
17362;BME280;8798;51.938;4.348;2023-04-02T00:21:01;100625.31;;;9.37;87.08
17362;BME280;8798;51.938;4.348;2023-04-02T00:23:35;100603.63;;;9.31;87.22
17362;BME280;8798;51.938;4.348;2023-04-02T00:26:05;100582.94;;;9.23;86.90
17362;BME280;8798;51.938;4.348;2023-04-02T00:28:34;100572.53;;;9.20;87.28
17362;BME280;8798;51.938;4.348;2023-04-02T00:31:01;100586.06;;;9.18;87.06
17362;BME280;8798;51.938;4.348;2023-04-02T00:33:31;100600.16;;;9.20;87.03
17362;BME280;8798;51.938;4.348;2023-04-02T00:35:59;100628.50;;;9.23;86.85
17362;BME280;8798;51.938;4.348;2023-04-02T00:38:34;100636.66;;;9.21;87.41
17362;BME280;8798;51.938;4.348;2023-04-02T00:41:04;100641.91;;;9.23;87.00
17362;BME280;8798;51.938;4.348;2023-04-02T00:43:35;100629.78;;;9.19;87.05
17362;BME280;8798;51.938;4.348;2023-04-02T00:46:11;100637.13;;;9.17;87.11
17362;BME280;8798;51.938;4.348;2023-04-02T00:48:48;100624.31;;;9.11;86.77
17362;BME280;8798;51.938;4.348;2023-04-02T00:51:21;100606.31;;;9.03;87.13
17362;BME280;8798;51.938;4.348;2023-04-02T00:53:51;100604.78;;;9.00;87.24
17362;BME280;8798;51.938;4.348;2023-04-02T00:56:23;100605.03;;;8.97;86.97
17362;BME280;8798;51.938;4.348;2023-04-02T00:58:54;100613.06;;;8.97;87.54
17362;BME280;8798;51.938;4.348;2023-04-02T01:01:25;100606.19;;;8.95;87.04
17362;BME280;8798;51.938;4.348;2023-04-02T01:03:58;100591.69;;;8.88;87.07
17362;BME280;8798;51.938;4.348;2023-04-02T01:06:29;100604.25;;;8.87;86.81
17362;BME280;8798;51.938;4.348;2023-04-02T01:09:07;100593.13;;;8.82;86.52
17362;BME280;8798;51.938;4.348;2023-04-02T01:11:51;100601.16;;;8.82;86.64
17362;BME280;8798;51.938;4.348;2023-04-02T01:14:33;100604.97;;;8.79;87.11
17362;BME280;8798;51.938;4.348;2023-04-02T01:17:14;100616.53;;;8.80;86.56
17362;BME280;8798;51.938;4.348;2023-04-02T01:22:43;100638.66;;;8.82;86.73
17362;BME280;8798;51.938;4.348;2023-04-02T01:25:18;100674.03;;;8.86;86.87
17362;BME280;8798;51.938;4.348;2023-04-02T01:27:53;100698.69;;;8.89;86.63
17362;BME280;8798;51.938;4.348;2023-04-02T01:30:25;100712.78;;;8.91;86.91
17362;BME280;8798;51.938;4.348;2023-04-02T01:32:53;100720.97;;;8.90;86.69
17362;BME280;8798;51.938;4.348;2023-04-02T01:35:23;100724.63;;;8.89;86.41
17362;BME280;8798;51.938;4.348;2023-04-02T01:37:56;100725.91;;;8.85;86.51
17362;BME280;8798;51.938;4.348;2023-04-02T01:40:32;100725.91;;;8.85;87.02
17362;BME280;8798;51.938;4.348;2023-04-02T01:43:08;100723.53;;;8.81;86.39
17362;BME280;8798;51.938;4.348;2023-04-02T01:45:39;100708.72;;;8.77;86.50
17362;BME280;8798;51.938;4.348;2023-04-02T01:48:12;100714.22;;;8.76;86.76
17362;BME280;8798;51.938;4.348;2023-04-02T01:50:43;100729.47;;;8.75;86.43
17362;BME280;8798;51.938;4.348;2023-04-02T01:53:14;100748.75;;;8.79;86.53
17362;BME280;8798;51.938;4.348;2023-04-02T01:55:44;100769.88;;;8.82;86.26
17362;BME280;8798;51.938;4.348;2023-04-02T01:58:13;100789.47;;;8.82;86.44
17362;BME280;8798;51.938;4.348;2023-04-02T02:00:49;100755.53;;;8.73;86.46
17362;BME280;8798;51.938;4.348;2023-04-02T02:03:18;100758.47;;;8.70;86.59
17362;BME280;8798;51.938;4.348;2023-04-02T02:05:47;100777.94;;;8.72;86.78
17362;BME280;8798;51.938;4.348;2023-04-02T02:08:24;100768.34;;;8.70;86.45
17362;BME280;8798;51.938;4.348;2023-04-02T02:10:56;100788.81;;;8.71;86.77
17362;BME280;8798;51.938;4.348;2023-04-02T02:13:23;100808.22;;;8.73;85.97
17362;BME280;8798;51.938;4.348;2023-04-02T02:15:56;100791.91;;;8.66;86.13
17362;BME280;8798;51.938;4.348;2023-04-02T02:18:24;100796.41;;;8.66;86.02
17362;BME280;8798;51.938;4.348;2023-04-02T02:20:53;100820.22;;;8.69;86.50
17362;BME280;8798;51.938;4.348;2023-04-02T02:23:23;100821.06;;;8.69;85.73
17362;BME280;8798;51.938;4.348;2023-04-02T02:25:53;100838.97;;;8.69;86.28
17362;BME280;8798;51.938;4.348;2023-04-02T02:28:22;100847.84;;;8.69;86.24
17362;BME280;8798;51.938;4.348;2023-04-02T02:30:56;100861.09;;;8.71;85.87
17362;BME280;8798;51.938;4.348;2023-04-02T02:33:29;100882.25;;;8.74;86.01
17362;BME280;8798;51.938;4.348;2023-04-02T02:36:02;100911.28;;;8.78;85.83
17362;BME280;8798;51.938;4.348;2023-04-02T02:38:38;100917.59;;;8.77;86.13
17362;BME280;8798;51.938;4.348;2023-04-02T02:41:15;100931.00;;;8.77;85.80
17362;BME280;8798;51.938;4.348;2023-04-02T02:43:50;100920.56;;;8.74;86.23
17362;BME280;8798;51.938;4.348;2023-04-02T02:46:22;100901.53;;;8.68;85.76
17362;BME280;8798;51.938;4.348;2023-04-02T02:48:52;100906.19;;;8.66;86.38
17362;BME280;8798;51.938;4.348;2023-04-02T02:51:27;100884.47;;;8.59;85.68
17362;BME280;8798;51.938;4.348;2023-04-02T02:53:59;100871.50;;;8.54;85.62
17362;BME280;8798;51.938;4.348;2023-04-02T02:56:29;100888.41;;;8.55;85.93
17362;BME280;8798;51.938;4.348;2023-04-02T02:58:58;100899.81;;;8.57;85.68
17362;BME280;8798;51.938;4.348;2023-04-02T03:01:29;100914.03;;;8.57;85.93
17362;BME280;8798;51.938;4.348;2023-04-02T03:03:59;100905.59;;;8.52;85.68
17362;BME280;8798;51.938;4.348;2023-04-02T03:06:27;100896.84;;;8.50;85.87
17362;BME280;8798;51.938;4.348;2023-04-02T03:09:01;100890.94;;;8.47;85.82
17362;BME280;8798;51.938;4.348;2023-04-02T03:11:35;100899.09;;;8.45;85.97
17362;BME280;8798;51.938;4.348;2023-04-02T03:14:15;100907.09;;;8.45;85.94
17362;BME280;8798;51.938;4.348;2023-04-02T03:16:50;100911.75;;;8.43;85.93
17362;BME280;8798;51.938;4.348;2023-04-02T03:19:27;100926.84;;;8.44;86.11
17362;BME280;8798;51.938;4.348;2023-04-02T03:21:58;100934.88;;;8.44;86.08
17362;BME280;8798;51.938;4.348;2023-04-02T03:24:35;100951.66;;;8.46;85.44
17362;BME280;8798;51.938;4.348;2023-04-02T03:27:11;100948.25;;;8.44;85.48
17362;BME280;8798;51.938;4.348;2023-04-02T03:29:42;100914.22;;;8.35;85.52
17362;BME280;8798;51.938;4.348;2023-04-02T03:32:19;100905.88;;;8.28;85.07
17362;BME280;8798;51.938;4.348;2023-04-02T03:34:51;100903.50;;;8.25;85.21
17362;BME280;8798;51.938;4.348;2023-04-02T03:37:23;100888.00;;;8.19;85.57
17362;BME280;8798;51.938;4.348;2023-04-02T03:39:56;100876.84;;;8.14;85.16
17362;BME280;8798;51.938;4.348;2023-04-02T03:42:29;100865.56;;;8.10;85.54
17362;BME280;8798;51.938;4.348;2023-04-02T03:45:08;100879.09;;;8.09;85.51
17362;BME280;8798;51.938;4.348;2023-04-02T03:47:42;100889.78;;;8.09;84.98
17362;BME280;8798;51.938;4.348;2023-04-02T03:50:15;100895.00;;;8.10;85.60
17362;BME280;8798;51.938;4.348;2023-04-02T03:52:45;100909.34;;;8.09;84.92
17362;BME280;8798;51.938;4.348;2023-04-02T03:55:15;100904.28;;;8.06;84.61
17362;BME280;8798;51.938;4.348;2023-04-02T03:57:50;100917.66;;;8.06;85.20
17362;BME280;8798;51.938;4.348;2023-04-02T04:00:26;100900.28;;;8.01;85.40
17362;BME280;8798;51.938;4.348;2023-04-02T04:03:03;100899.72;;;7.97;84.69
17362;BME280;8798;51.938;4.348;2023-04-02T04:05:35;100889.56;;;7.91;85.06
17362;BME280;8798;51.938;4.348;2023-04-02T04:08:07;100887.88;;;7.90;84.99
17362;BME280;8798;51.938;4.348;2023-04-02T04:10:39;100900.41;;;7.89;84.63
17362;BME280;8798;51.938;4.348;2023-04-02T04:13:11;100902.34;;;7.87;84.39
17362;BME280;8798;51.938;4.348;2023-04-02T04:15:47;100927.97;;;7.90;85.13
17362;BME280;8798;51.938;4.348;2023-04-02T04:18:25;100933.22;;;7.91;85.27
17362;BME280;8798;51.938;4.348;2023-04-02T04:21:01;100951.06;;;7.91;84.95
17362;BME280;8798;51.938;4.348;2023-04-02T04:23:33;100971.34;;;7.93;85.04
17362;BME280;8798;51.938;4.348;2023-04-02T04:26:11;100961.75;;;7.91;84.29
17362;BME280;8798;51.938;4.348;2023-04-02T04:28:55;100968.22;;;7.88;84.83
17362;BME280;8798;51.938;4.348;2023-04-02T04:31:34;100961.47;;;7.84;84.38
17362;BME280;8798;51.938;4.348;2023-04-02T04:34:10;100937.06;;;7.78;85.21
17362;BME280;8798;51.938;4.348;2023-04-02T04:36:43;100970.72;;;7.80;84.20
17362;BME280;8798;51.938;4.348;2023-04-02T04:39:17;100998.03;;;7.84;84.75
17362;BME280;8798;51.938;4.348;2023-04-02T04:41:51;100993.94;;;7.80;85.17
17362;BME280;8798;51.938;4.348;2023-04-02T04:44:22;100978.28;;;7.75;84.63
17362;BME280;8798;51.938;4.348;2023-04-02T04:46:55;100985.56;;;7.73;85.09
17362;BME280;8798;51.938;4.348;2023-04-02T04:49:28;100996.16;;;7.74;84.41
17362;BME280;8798;51.938;4.348;2023-04-02T04:52:00;101019.94;;;7.78;84.03
17362;BME280;8798;51.938;4.348;2023-04-02T04:54:36;101039.41;;;7.80;84.15
17362;BME280;8798;51.938;4.348;2023-04-02T04:57:04;101023.00;;;7.73;84.96
17362;BME280;8798;51.938;4.348;2023-04-02T04:59:40;101032.84;;;7.72;84.56
17362;BME280;8798;51.938;4.348;2023-04-02T05:02:12;101035.53;;;7.72;84.66
17362;BME280;8798;51.938;4.348;2023-04-02T05:04:48;101042.81;;;7.70;84.45
17362;BME280;8798;51.938;4.348;2023-04-02T05:07:19;101038.59;;;7.68;84.02
17362;BME280;8798;51.938;4.348;2023-04-02T05:09:52;101033.63;;;7.63;84.05
17362;BME280;8798;51.938;4.348;2023-04-02T05:12:30;101041.91;;;7.60;84.33
17362;BME280;8798;51.938;4.348;2023-04-02T05:15:05;101042.91;;;7.59;84.67
17362;BME280;8798;51.938;4.348;2023-04-02T05:17:42;101037.94;;;7.54;84.25
17362;BME280;8798;51.938;4.348;2023-04-02T05:20:17;101049.47;;;7.55;84.73
17362;BME280;8798;51.938;4.348;2023-04-02T05:22:50;101031.25;;;7.49;84.54
17362;BME280;8798;51.938;4.348;2023-04-02T05:25:23;101041.25;;;7.47;84.58
17362;BME280;8798;51.938;4.348;2023-04-02T05:27:56;101044.03;;;7.45;84.69
17362;BME280;8798;51.938;4.348;2023-04-02T05:30:46;101067.69;;;7.50;83.56
17362;BME280;8798;51.938;4.348;2023-04-02T05:33:23;101087.84;;;7.54;83.63
17362;BME280;8798;51.938;4.348;2023-04-02T05:35:56;101116.13;;;7.57;83.76
17362;BME280;8798;51.938;4.348;2023-04-02T05:38:28;101124.31;;;7.55;84.24
17362;BME280;8798;51.938;4.348;2023-04-02T05:41:02;101110.47;;;7.50;84.46
17362;BME280;8798;51.938;4.348;2023-04-02T05:43:33;101089.72;;;7.42;84.36
17362;BME280;8798;51.938;4.348;2023-04-02T05:46:06;101084.59;;;7.39;83.84
17362;BME280;8798;51.938;4.348;2023-04-02T05:48:43;101085.84;;;7.35;84.12
17362;BME280;8798;51.938;4.348;2023-04-02T05:51:19;101080.63;;;7.33;83.52
17362;BME280;8798;51.938;4.348;2023-04-02T05:53:51;101095.81;;;7.33;83.36
17362;BME280;8798;51.938;4.348;2023-04-02T05:56:23;101117.91;;;7.35;84.32
17362;BME280;8798;51.938;4.348;2023-04-02T05:58:55;101134.69;;;7.37;84.05
17362;BME280;8798;51.938;4.348;2023-04-02T06:01:36;101147.03;;;7.38;83.97
17362;BME280;8798;51.938;4.348;2023-04-02T06:04:13;101176.19;;;7.41;83.96
17362;BME280;8798;51.938;4.348;2023-04-02T06:06:50;101144.88;;;7.32;82.73
17362;BME280;8798;51.938;4.348;2023-04-02T06:09:24;101142.56;;;7.27;83.34
17362;BME280;8798;51.938;4.348;2023-04-02T06:11:59;101132.13;;;7.24;83.56
17362;BME280;8798;51.938;4.348;2023-04-02T06:14:29;101134.09;;;7.22;83.03
17362;BME280;8798;51.938;4.348;2023-04-02T06:16:57;101148.16;;;7.24;83.33
17362;BME280;8798;51.938;4.348;2023-04-02T06:19:28;101168.41;;;7.27;83.38
17362;BME280;8798;51.938;4.348;2023-04-02T06:22:07;101166.16;;;7.22;83.46
17362;BME280;8798;51.938;4.348;2023-04-02T06:24:38;101140.03;;;7.15;82.98
17362;BME280;8798;51.938;4.348;2023-04-02T06:27:10;101118.56;;;7.05;83.38
17362;BME280;8798;51.938;4.348;2023-04-02T06:29:41;101082.00;;;6.94;83.10
17362;BME280;8798;51.938;4.348;2023-04-02T06:32:11;101054.47;;;6.82;83.21
17362;BME280;8798;51.938;4.348;2023-04-02T06:34:40;101056.41;;;6.80;82.57
17362;BME280;8798;51.938;4.348;2023-04-02T06:37:16;101069.78;;;6.80;82.61
17362;BME280;8798;51.938;4.348;2023-04-02T06:39:46;101076.06;;;6.79;82.64
17362;BME280;8798;51.938;4.348;2023-04-02T06:42:17;101102.50;;;6.82;83.69
17362;BME280;8798;51.938;4.348;2023-04-02T06:44:46;101119.16;;;6.86;83.40
17362;BME280;8798;51.938;4.348;2023-04-02T06:47:21;101167.59;;;6.93;82.53
17362;BME280;8798;51.938;4.348;2023-04-02T06:49:55;101235.94;;;7.06;83.12
17362;BME280;8798;51.938;4.348;2023-04-02T06:52:28;101256.09;;;7.10;83.57
17362;BME280;8798;51.938;4.348;2023-04-02T06:55:04;101242.38;;;7.04;83.17
17362;BME280;8798;51.938;4.348;2023-04-02T06:57:33;101235.44;;;7.01;82.44
17362;BME280;8798;51.938;4.348;2023-04-02T07:00:02;101238.38;;;6.98;82.87
17362;BME280;8798;51.938;4.348;2023-04-02T07:02:32;101236.03;;;6.94;81.78
17362;BME280;8798;51.938;4.348;2023-04-02T07:05:04;101226.69;;;6.88;82.73
17362;BME280;8798;51.938;4.348;2023-04-02T07:07:35;101241.63;;;6.91;82.82
17362;BME280;8798;51.938;4.348;2023-04-02T07:10:04;101262.75;;;6.94;82.74
17362;BME280;8798;51.938;4.348;2023-04-02T07:12:34;101297.00;;;7.00;81.76
17362;BME280;8798;51.938;4.348;2023-04-02T07:15:02;101299.88;;;6.97;82.50
17362;BME280;8798;51.938;4.348;2023-04-02T07:17:30;101288.47;;;6.95;81.85
17362;BME280;8798;51.938;4.348;2023-04-02T07:19:58;101283.59;;;6.88;81.45
17362;BME280;8798;51.938;4.348;2023-04-02T07:22:26;101290.78;;;6.88;81.68
17362;BME280;8798;51.938;4.348;2023-04-02T07:24:55;101331.09;;;6.96;81.55
17362;BME280;8798;51.938;4.348;2023-04-02T07:27:24;101362.78;;;7.01;81.11
17362;BME280;8798;51.938;4.348;2023-04-02T07:29:53;101379.56;;;7.03;81.62
17362;BME280;8798;51.938;4.348;2023-04-02T07:32:21;101380.50;;;7.02;82.21
17362;BME280;8798;51.938;4.348;2023-04-02T07:34:49;101381.59;;;6.99;81.09
17362;BME280;8798;51.938;4.348;2023-04-02T07:37:17;101378.19;;;6.97;81.50
17362;BME280;8798;51.938;4.348;2023-04-02T07:39:44;101381.09;;;6.94;82.23
17362;BME280;8798;51.938;4.348;2023-04-02T07:42:14;101367.13;;;6.91;81.49
17362;BME280;8798;51.938;4.348;2023-04-02T07:44:41;101406.72;;;6.97;81.43
17362;BME280;8798;51.938;4.348;2023-04-02T07:47:09;101440.25;;;7.01;81.19
17362;BME280;8798;51.938;4.348;2023-04-02T07:49:37;101476.09;;;7.09;81.71
17362;BME280;8798;51.938;4.348;2023-04-02T07:52:05;101479.75;;;7.08;80.91
17362;BME280;8798;51.938;4.348;2023-04-02T07:54:33;101484.25;;;7.08;81.55
17362;BME280;8798;51.938;4.348;2023-04-02T07:57:01;101507.94;;;7.13;81.66
17362;BME280;8798;51.938;4.348;2023-04-02T07:59:30;101509.88;;;7.10;80.75
17362;BME280;8798;51.938;4.348;2023-04-02T08:01:58;101487.34;;;7.02;81.34
17362;BME280;8798;51.938;4.348;2023-04-02T08:04:26;101469.97;;;6.96;81.66
17362;BME280;8798;51.938;4.348;2023-04-02T08:06:54;101503.38;;;7.02;80.42
17362;BME280;8798;51.938;4.348;2023-04-02T08:09:21;101544.69;;;7.09;81.43
17362;BME280;8798;51.938;4.348;2023-04-02T08:11:49;101580.59;;;7.18;80.46
17362;BME280;8798;51.938;4.348;2023-04-02T08:14:17;101597.47;;;7.18;80.36
17362;BME280;8798;51.938;4.348;2023-04-02T08:16:49;101587.97;;;7.14;81.04
17362;BME280;8798;51.938;4.348;2023-04-02T08:19:18;101586.38;;;7.11;80.19
17362;BME280;8798;51.938;4.348;2023-04-02T08:21:46;101537.47;;;6.98;80.23
17362;BME280;8798;51.938;4.348;2023-04-02T08:24:16;101528.09;;;6.93;80.61
17362;BME280;8798;51.938;4.348;2023-04-02T08:26:44;101538.56;;;6.96;81.10
17362;BME280;8798;51.938;4.348;2023-04-02T08:29:12;101576.38;;;7.02;80.46
17362;BME280;8798;51.938;4.348;2023-04-02T08:31:41;101596.66;;;7.05;80.35
17362;BME280;8798;51.938;4.348;2023-04-02T08:34:10;101622.28;;;7.07;79.75
17362;BME280;8798;51.938;4.348;2023-04-02T08:36:40;101635.44;;;7.10;80.10
17362;BME280;8798;51.938;4.348;2023-04-02T08:39:09;101650.47;;;7.11;80.68
17362;BME280;8798;51.938;4.348;2023-04-02T08:41:43;101646.22;;;7.09;79.73
17362;BME280;8798;51.938;4.348;2023-04-02T08:44:28;101633.19;;;7.04;78.91
17362;BME280;8798;51.938;4.348;2023-04-02T08:46:59;101654.34;;;7.07;79.98
17362;BME280;8798;51.938;4.348;2023-04-02T08:49:34;101650.94;;;7.05;79.80
17362;BME280;8798;51.938;4.348;2023-04-02T08:52:04;101671.31;;;7.06;79.62
17362;BME280;8798;51.938;4.348;2023-04-02T08:54:34;101724.88;;;7.18;79.73
17362;BME280;8798;51.938;4.348;2023-04-02T08:57:06;101787.06;;;7.32;79.78
17362;BME280;8798;51.938;4.348;2023-04-02T08:59:40;101795.09;;;7.32;79.54
17362;BME280;8798;51.938;4.348;2023-04-02T09:02:24;101802.97;;;7.34;79.65
17362;BME280;8798;51.938;4.348;2023-04-02T09:04:57;101855.78;;;7.43;78.64
17362;BME280;8798;51.938;4.348;2023-04-02T09:07:27;101868.94;;;7.46;79.38
17362;BME280;8798;51.938;4.348;2023-04-02T09:09:55;101871.63;;;7.46;78.83
17362;BME280;8798;51.938;4.348;2023-04-02T09:12:25;101898.03;;;7.51;79.26
17362;BME280;8798;51.938;4.348;2023-04-02T09:15:04;101926.28;;;7.55;79.68
17362;BME280;8798;51.938;4.348;2023-04-02T09:17:38;101943.72;;;7.61;79.37
17362;BME280;8798;51.938;4.348;2023-04-02T09:20:21;101976.47;;;7.64;78.50
17362;BME280;8798;51.938;4.348;2023-04-02T09:22:50;101998.41;;;7.69;78.66
17362;BME280;8798;51.938;4.348;2023-04-02T09:25:21;102024.63;;;7.77;78.90
17362;BME280;8798;51.938;4.348;2023-04-02T09:27:52;102047.63;;;7.80;79.15
17362;BME280;8798;51.938;4.348;2023-04-02T09:30:28;102058.09;;;7.83;78.16
17362;BME280;8798;51.938;4.348;2023-04-02T09:33:03;102061.63;;;7.83;78.74
17362;BME280;8798;51.938;4.348;2023-04-02T09:35:36;102074.81;;;7.86;78.05
17362;BME280;8798;51.938;4.348;2023-04-02T09:38:18;102100.38;;;7.90;78.73
17362;BME280;8798;51.938;4.348;2023-04-02T09:40:53;102085.59;;;7.85;78.92
17362;BME280;8798;51.938;4.348;2023-04-02T09:43:25;102039.91;;;7.75;78.29
17362;BME280;8798;51.938;4.348;2023-04-02T09:45:58;101957.50;;;7.54;77.89
17362;BME280;8798;51.938;4.348;2023-04-02T09:48:28;101858.69;;;7.27;77.93
17362;BME280;8798;51.938;4.348;2023-04-02T09:51:23;101775.50;;;7.06;78.29
17362;BME280;8798;51.938;4.348;2023-04-02T09:54:06;101780.00;;;7.06;76.89
17362;BME280;8798;51.938;4.348;2023-04-02T09:56:36;101788.84;;;7.06;77.41
17362;BME280;8798;51.938;4.348;2023-04-02T09:59:05;101803.81;;;7.09;77.78
17362;BME280;8798;51.938;4.348;2023-04-02T10:01:42;101820.59;;;7.11;77.83
17362;BME280;8798;51.938;4.348;2023-04-02T10:04:35;101842.66;;;7.15;77.56
17362;BME280;8798;51.938;4.348;2023-04-02T10:07:05;101862.06;;;7.17;77.40
17362;BME280;8798;51.938;4.348;2023-04-02T10:09:35;101894.59;;;7.23;77.27
17362;BME280;8798;51.938;4.348;2023-04-02T10:12:05;101946.44;;;7.33;76.92
17362;BME280;8798;51.938;4.348;2023-04-02T10:14:36;101991.19;;;7.44;76.60
17362;BME280;8798;51.938;4.348;2023-04-02T10:17:09;101997.38;;;7.45;76.47
17362;BME280;8798;51.938;4.348;2023-04-02T10:19:41;102029.03;;;7.51;76.81
17362;BME280;8798;51.938;4.348;2023-04-02T10:22:15;102056.31;;;7.56;76.53
17362;BME280;8798;51.938;4.348;2023-04-02T10:24:44;102080.94;;;7.61;76.81
17362;BME280;8798;51.938;4.348;2023-04-02T10:27:19;102104.69;;;7.66;75.96
17362;BME280;8798;51.938;4.348;2023-04-02T10:29:57;102123.09;;;7.70;76.14
17362;BME280;8798;51.938;4.348;2023-04-02T10:32:34;102142.50;;;7.74;76.61
17362;BME280;8798;51.938;4.348;2023-04-02T10:35:11;102146.78;;;7.77;76.20
17362;BME280;8798;51.938;4.348;2023-04-02T10:38:10;102167.22;;;7.78;75.79
17362;BME280;8798;51.938;4.348;2023-04-02T10:40:46;102155.75;;;7.75;76.44
17362;BME280;8798;51.938;4.348;2023-04-02T10:43:38;102174.19;;;7.80;76.15
17362;BME280;8798;51.938;4.348;2023-04-02T10:46:15;102197.19;;;7.83;75.63
17362;BME280;8798;51.938;4.348;2023-04-02T10:48:51;102213.81;;;7.88;76.10
17362;BME280;8798;51.938;4.348;2023-04-02T10:51:28;102204.16;;;7.85;75.11
17362;BME280;8798;51.938;4.348;2023-04-02T10:54:09;102230.63;;;7.90;75.08
17362;BME280;8798;51.938;4.348;2023-04-02T10:56:44;102270.03;;;8.01;75.15
17362;BME280;8798;51.938;4.348;2023-04-02T10:59:18;102318.47;;;8.10;75.37
17362;BME280;8798;51.938;4.348;2023-04-02T11:01:48;102344.66;;;8.19;75.38
17362;BME280;8798;51.938;4.348;2023-04-02T11:04:20;102400.16;;;8.30;74.49
17362;BME280;8798;51.938;4.348;2023-04-02T11:06:52;102447.59;;;8.43;74.75
17362;BME280;8798;51.938;4.348;2023-04-02T11:09:40;102474.94;;;8.48;74.80
17362;BME280;8798;51.938;4.348;2023-04-02T11:12:18;102461.75;;;8.45;74.48
17362;BME280;8798;51.938;4.348;2023-04-02T11:14:49;102479.16;;;8.52;74.37
17362;BME280;8798;51.938;4.348;2023-04-02T11:17:18;102495.16;;;8.53;74.64
17362;BME280;8798;51.938;4.348;2023-04-02T11:19:47;102505.66;;;8.56;74.21
17362;BME280;8798;51.938;4.348;2023-04-02T11:22:16;102512.63;;;8.59;74.59
17362;BME280;8798;51.938;4.348;2023-04-02T11:24:47;102519.63;;;8.61;74.36
17362;BME280;8798;51.938;4.348;2023-04-02T11:27:25;102553.09;;;8.69;73.77
17362;BME280;8798;51.938;4.348;2023-04-02T11:30:02;102560.84;;;8.73;74.18
17362;BME280;8798;51.938;4.348;2023-04-02T11:32:36;102580.25;;;8.77;74.21
17362;BME280;8798;51.938;4.348;2023-04-02T11:35:26;102597.88;;;8.81;73.70
17362;BME280;8798;51.938;4.348;2023-04-02T11:41:10;102624.09;;;8.90;73.18
17362;BME280;8798;51.938;4.348;2023-04-02T11:43:49;102654.78;;;8.99;73.89
17362;BME280;8798;51.938;4.348;2023-04-02T11:46:44;102691.84;;;9.07;73.18
17362;BME280;8798;51.938;4.348;2023-04-02T11:52:22;102710.97;;;9.15;73.35
17362;BME280;8798;51.938;4.348;2023-04-02T11:55:17;102722.38;;;9.18;72.95
17362;BME280;8798;51.938;4.348;2023-04-02T11:58:19;102732.06;;;9.21;72.77
17362;BME280;8798;51.938;4.348;2023-04-02T12:04:04;102782.91;;;9.37;72.53
17362;BME280;8798;51.938;4.348;2023-04-02T12:06:46;102811.06;;;9.44;72.18
17362;BME280;8798;51.938;4.348;2023-04-02T12:09:20;102845.28;;;9.55;71.76
17362;BME280;8798;51.938;4.348;2023-04-02T12:11:49;102854.97;;;9.57;72.31
17362;BME280;8798;51.938;4.348;2023-04-02T12:14:42;102863.69;;;9.61;72.23
17362;BME280;8798;51.938;4.348;2023-04-02T12:17:24;102862.75;;;9.62;72.23
17362;BME280;8798;51.938;4.348;2023-04-02T12:19:54;102874.91;;;9.67;71.65
17362;BME280;8798;51.938;4.348;2023-04-02T12:22:24;102901.25;;;9.75;71.29
17362;BME280;8798;51.938;4.348;2023-04-02T12:24:57;102917.94;;;9.80;71.21
17362;BME280;8798;51.938;4.348;2023-04-02T12:27:28;102936.34;;;9.86;71.63
17362;BME280;8798;51.938;4.348;2023-04-02T12:30:11;102969.72;;;9.97;71.26
17362;BME280;8798;51.938;4.348;2023-04-02T12:32:40;102995.22;;;10.04;71.21
17362;BME280;8798;51.938;4.348;2023-04-02T12:35:26;102989.75;;;10.05;71.19
17362;BME280;8798;51.938;4.348;2023-04-02T12:37:54;103002.06;;;10.09;70.73
17362;BME280;8798;51.938;4.348;2023-04-02T12:40:23;103013.38;;;10.15;70.93
17362;BME280;8798;51.938;4.348;2023-04-02T12:42:51;103030.06;;;10.20;70.74
17362;BME280;8798;51.938;4.348;2023-04-02T12:45:24;103054.66;;;10.28;70.71
17362;BME280;8798;51.938;4.348;2023-04-02T12:47:55;103074.88;;;10.33;70.63
17362;BME280;8798;51.938;4.348;2023-04-02T12:50:24;103107.34;;;10.45;70.29
17362;BME280;8798;51.938;4.348;2023-04-02T12:52:53;103154.19;;;10.55;70.57
17362;BME280;8798;51.938;4.348;2023-04-02T12:55:25;103165.50;;;10.60;70.41
17362;BME280;8798;51.938;4.348;2023-04-02T12:57:54;103177.72;;;10.66;70.30
17362;BME280;8798;51.938;4.348;2023-04-02T13:00:32;103198.75;;;10.73;70.04
17362;BME280;8798;51.938;4.348;2023-04-02T13:03:18;103202.97;;;10.77;69.77
17362;BME280;8798;51.938;4.348;2023-04-02T13:05:50;103221.31;;;10.85;69.82
17362;BME280;8798;51.938;4.348;2023-04-02T13:08:22;103238.03;;;10.90;69.64
17362;BME280;8798;51.938;4.348;2023-04-02T13:10:54;103282.81;;;11.06;69.98
17362;BME280;8798;51.938;4.348;2023-04-02T13:13:27;103329.59;;;11.17;69.81
17362;BME280;8798;51.938;4.348;2023-04-02T13:16:06;103367.50;;;11.29;69.58
17362;BME280;8798;51.938;4.348;2023-04-02T13:18:36;103400.00;;;11.40;69.54
17362;BME280;8798;51.938;4.348;2023-04-02T13:21:05;103412.22;;;11.46;69.31
17362;BME280;8798;51.938;4.348;2023-04-02T13:23:49;103424.44;;;11.51;69.05
17362;BME280;8798;51.938;4.348;2023-04-02T13:26:19;103453.38;;;11.62;69.24
17362;BME280;8798;51.938;4.348;2023-04-02T13:28:56;103452.31;;;11.65;68.70
17362;BME280;8798;51.938;4.348;2023-04-02T13:31:25;103465.41;;;11.71;68.73
17362;BME280;8798;51.938;4.348;2023-04-02T13:33:53;103483.72;;;11.80;68.93
17362;BME280;8798;51.938;4.348;2023-04-02T13:36:21;103493.25;;;11.86;68.55
17362;BME280;8798;51.938;4.348;2023-04-02T13:38:49;103510.78;;;11.93;68.64
17362;BME280;8798;51.938;4.348;2023-04-02T13:41:21;103522.06;;;11.99;67.95
17362;BME280;8798;51.938;4.348;2023-04-02T13:43:49;103522.72;;;12.03;68.47
17362;BME280;8798;51.938;4.348;2023-04-02T13:46:20;103510.22;;;12.02;67.78
17362;BME280;8798;51.938;4.348;2023-04-02T13:48:51;103488.69;;;12.02;67.56
17362;BME280;8798;51.938;4.348;2023-04-02T13:51:21;103503.50;;;12.09;67.75
17362;BME280;8798;51.938;4.348;2023-04-02T13:53:54;103524.66;;;12.15;68.02
17362;BME280;8798;51.938;4.348;2023-04-02T13:56:23;103551.81;;;12.26;67.60